M I D A S
Marine Information and Data Acquisition System
Tripno 1681 of the Zeeleeuw from 2009-04-24 06:37:32 to 2009-04-24 08:38:40
Back to CruiseResearch ActivitiesStationsMapUnderway DataData graphs

EquipmentUnitsComment
TimeDGPSUTC
LatitudeDGPSDM.mWGS84
LongitudeDGPSDM.mWGS84
TemperatureSBE03/SBE38deg celciusITS90
ConductivitySBE21S/mITS90
SalinitySBE21 Practical Salinity Units
ChlorophylAChelsea fluorimeterg/lCalibrated in Aceton
Missing or incorrect values are displayed as -999
Sea surface data collected by the RV Zeeleeuw from 2009-04-24 06:44:10 to 2009-04-24 11:29:50
Time Latitude Longitude Temperature Conductivity Salinity ChlorophylA
2009-04-24 06:45:15 51°13.68 2°55.894 -999 0.033049 0.184902 -1.035392
2009-04-24 06:46:15 51°13.689 2°55.803 -999 0.033461 0.187259 -1.035392
2009-04-24 06:47:14 51°13.693 2°55.754 -999 0.033872 0.189642 -1.035392
2009-04-24 06:48:12 51°13.703 2°55.75 -999 0.034901 0.19551 -1.035392
2009-04-24 06:49:11 51°13.766 2°55.693 -999 0.032535 0.182069 -1.035392
2009-04-24 06:50:11 51°13.878 2°55.607 -999 0.032638 0.182694 -1.035392
2009-04-24 06:51:11 51°13.998 2°55.514 -999 0.032329 0.180977 -1.035392
2009-04-24 06:52:11 51°14.12 2°55.42 -999 0.033049 0.185091 -1.035392
2009-04-24 06:53:11 51°14.236 2°55.292 -999 0.033152 0.185708 -1.035392
2009-04-24 06:54:11 51°14.336 2°55.116 -999 0.033769 0.189241 -1.035392
2009-04-24 06:55:11 51°14.422 2°54.898 -999 0.034901 0.195732 -1.035392
2009-04-24 06:56:11 51°14.404 2°54.603 -999 0.032226 0.180523 -1.035392
2009-04-24 06:57:11 51°14.316 2°54.297 -999 0.033667 0.188717 -1.035392
2009-04-24 06:58:11 51°14.226 2°53.984 -999 0.032329 0.181158 -1.035392
2009-04-24 06:59:11 51°14.125 2°53.675 -999 0.03202 0.179436 -1.035392
2009-04-24 07:00:11 51°14.023 2°53.366 -999 0.032638 0.182965 -1.070216
2009-04-24 07:01:11 51°13.924 2°53.054 -999 0.032226 0.180655 -1.035392
2009-04-24 07:02:11 51°13.825 2°52.741 -999 0.031814 0.178349 -1.070216
2009-04-24 07:03:11 51°13.721 2°52.432 -999 0.032226 0.180703 -1.035392
2009-04-24 07:04:11 51°13.616 2°52.123 -999 0.032226 0.180732 -1.035392
2009-04-24 07:05:11 51°13.512 2°51.813 -999 0.032226 0.180755 -1.035392
2009-04-24 07:06:11 51°13.395 2°51.546 -999 0.033769 0.189588 -1.035392
2009-04-24 07:07:11 51°13.281 2°51.483 -999 0.033049 0.185492 -1.035392
2009-04-24 07:08:11 51°13.212 2°51.465 -999 0.03274 0.183757 -1.035392
2009-04-24 07:09:11 51°13.162 2°51.438 -999 0.033358 0.187309 -1.035392
2009-04-24 07:10:11 51°13.121 2°51.401 -999 0.033255 0.186747 -1.035392
2009-04-24 07:11:11 51°13.083 2°51.357 -999 0.033769 0.189704 -1.035392
2009-04-24 07:12:11 51°13.024 2°51.281 -999 0.033255 0.186797 -1.070216
2009-04-24 07:13:11 51°12.971 2°51.174 -999 0.033152 0.186238 -1.035392
2009-04-24 07:14:11 51°12.934 2°51.064 -999 0.033667 0.189203 -1.035392
2009-04-24 07:15:11 51°12.903 2°50.964 -999 0.034078 0.191577 -1.035392
2009-04-24 07:16:11 51°12.873 2°50.874 -999 0.034078 0.191605 -1.070216
2009-04-24 07:17:11 51°12.843 2°50.786 -999 0.033461 0.188111 -1.035392
2009-04-24 07:18:11 51°12.815 2°50.698 -999 0.033667 0.189319 -1.070216
2009-04-24 07:19:11 51°12.787 2°50.612 -999 0.033255 0.187006 -1.070216
2009-04-24 07:20:11 51°12.76 2°50.526 -999 0.033564 0.1888 -1.035392
2009-04-24 07:21:11 51°12.735 2°50.44 -999 0.033461 0.18825 -1.035392
2009-04-24 07:22:11 51°12.709 2°50.353 -999 0.033461 0.188281 -1.035392
2009-04-24 07:23:11 51°12.683 2°50.267 -999 0.033667 0.189493 -1.070216
2009-04-24 07:24:11 51°12.656 2°50.18 -999 0.033975 0.191294 -1.035392
2009-04-24 07:25:11 51°12.63 2°50.093 -999 0.034078 0.191913 -1.070216
2009-04-24 07:26:11 51°12.604 2°50.006 -999 0.033461 0.188417 -1.070216
2009-04-24 07:27:11 51°12.579 2°49.918 -999 0.033667 0.189626 -1.070216
2009-04-24 07:28:11 51°12.555 2°49.83 -999 0.033975 0.191432 -1.035392
2009-04-24 07:29:11 51°12.531 2°49.742 -999 0.033975 0.191463 -1.070216
2009-04-24 07:30:11 51°12.507 2°49.655 -999 0.033461 0.188556 -1.070216
2009-04-24 07:31:11 51°12.484 2°49.568 -999 0.033975 0.191532 -1.070216
2009-04-24 07:32:11 51°12.461 2°49.482 -999 0.033667 0.189801 -1.070216
2009-04-24 07:33:11 51°12.438 2°49.398 -999 0.033667 0.189835 -1.035392
2009-04-24 07:34:11 51°12.415 2°49.314 -999 0.033667 0.18987 -1.070216
2009-04-24 07:35:11 51°12.392 2°49.23 -999 0.034181 0.19285 -1.070216
2009-04-24 07:36:11 51°12.37 2°49.145 -999 0.033667 0.189935 -1.070216
2009-04-24 07:37:11 51°12.348 2°49.061 -999 0.033872 0.191151 -1.035392
2009-04-24 07:38:11 51°12.327 2°48.978 -999 0.03377 0.190597 -1.070216
2009-04-24 07:39:11 51°12.306 2°48.896 -999 0.033564 0.189449 -1.070216
2009-04-24 07:40:11 51°12.287 2°48.815 -999 0.035931 0.203092 -1.070216
2009-04-24 07:41:11 51°12.268 2°48.736 -999 0.03521 0.198954 -1.035392
2009-04-24 07:42:11 51°12.251 2°48.657 -999 0.03377 0.190707 -1.070216
2009-04-24 07:43:11 51°12.236 2°48.581 -999 0.033152 0.187218 -1.070216
2009-04-24 07:44:11 51°12.221 2°48.517 -999 0.035416 0.200252 -1.070216
2009-04-24 07:45:11 51°12.205 2°48.464 -999 0.036754 0.20799 -1.035392
2009-04-24 07:46:11 51°12.181 2°48.409 -999 0.036239 0.205077 -1.035392
2009-04-24 07:47:11 51°12.139 2°48.374 -999 0.036239 0.205099 -1.035392
2009-04-24 07:48:11 51°12.1 2°48.382 -999 0.035313 0.199806 -1.070216
2009-04-24 07:49:11 51°12.093 2°48.416 -999 0.033461 0.189172 -1.070216
2009-04-24 07:50:11 51°12.099 2°48.423 -999 0.034387 0.194512 -1.035392
2009-04-24 07:51:11 51°12.105 2°48.417 -999 0.036548 0.207017 -1.070216
2009-04-24 07:52:11 51°12.108 2°48.403 -999 0.037371 0.211816 -1.070216
2009-04-24 07:53:11 51°12.11 2°48.389 -999 0.03768 0.213641 -1.070216
2009-04-24 07:54:11 51°12.127 2°48.415 -999 0.038709 0.219622 -1.070216
2009-04-24 07:55:11 51°12.147 2°48.503 -999 0.091812 0.535455 -1.035392
2009-04-24 07:56:11 51°12.172 2°48.61 -999 0.088107 0.512959 -1.070216
2009-04-24 07:57:11 51°12.175 2°48.643 -999 0.077815 0.450847 -1.070216
2009-04-24 07:58:11 51°12.177 2°48.654 -999 0.051881 0.296603 -1.070216
2009-04-24 07:59:11 51°12.179 2°48.653 -999 0.047251 0.269461 -1.070216
2009-04-24 08:00:11 51°12.181 2°48.642 -999 0.04581 0.261094 -1.070216
2009-04-24 08:01:11 51°12.181 2°48.627 -999 0.044575 0.253957 -1.035392
2009-04-24 08:02:11 51°12.179 2°48.608 -999 0.043237 0.246199 -1.035392
2009-04-24 08:03:11 51°12.177 2°48.585 -999 0.03696 0.209752 -1.035392
2009-04-24 08:04:11 51°12.175 2°48.559 -999 0.039121 0.222323 -1.070216
2009-04-24 08:05:11 51°12.172 2°48.532 -999 0.041693 0.237338 -1.035392
2009-04-24 08:06:11 51°12.169 2°48.505 -999 0.04406 0.25112 -1.070216
2009-04-24 08:07:11 51°12.168 2°48.489 -999 0.042002 0.239125 -1.035392
2009-04-24 08:08:11 51°12.197 2°48.564 -999 0.037577 0.213447 -1.070216
2009-04-24 08:09:11 51°12.255 2°48.718 -999 0.069273 0.400769 -1.035392
2009-04-24 08:10:11 51°12.316 2°48.89 -999 0.056512 0.324632 -1.070216
2009-04-24 08:11:11 51°12.371 2°49.066 -999 0.05538 0.31799 -1.070216
2009-04-24 08:12:11 51°12.438 2°49.231 -999 0.048383 0.276774 -1.070216
2009-04-24 08:13:11 51°12.526 2°49.372 -999 0.039532 0.225043 -1.070216
2009-04-24 08:14:11 51°12.592 2°49.536 -999 0.041488 0.236483 -1.070216
2009-04-24 08:15:11 51°12.662 2°49.699 -999 0.039429 0.224528 -1.035392
2009-04-24 08:16:11 51°12.734 2°49.859 -999 0.039532 0.225168 -1.035392
2009-04-24 08:17:11 51°12.801 2°50.025 -999 0.039944 0.227595 -1.070216
2009-04-24 08:18:11 51°12.873 2°50.188 -999 0.038606 0.219849 -1.070216
2009-04-24 08:19:11 51°12.93 2°50.361 -999 0.038606 0.219873 -1.070216
2009-04-24 08:20:11 51°12.979 2°50.542 -999 0.038606 0.21991 -1.070216
2009-04-24 08:21:11 51°13.038 2°50.715 -999 0.039018 0.222318 -1.070216
2009-04-24 08:22:11 51°13.1 2°50.874 -999 0.038503 0.219352 -1.070216
2009-04-24 08:23:11 51°13.159 2°51.03 -999 0.037783 0.215205 -1.035392
2009-04-24 08:24:11 51°13.216 2°51.186 -999 0.037166 0.21163 -1.070216
2009-04-24 08:25:11 51°13.276 2°51.339 -999 0.036857 0.209867 -1.070216
2009-04-24 08:26:11 51°13.334 2°51.497 -999 0.037166 0.211677 -1.070216
2009-04-24 08:27:11 51°13.393 2°51.652 -999 0.036857 0.209917 -1.070216
2009-04-24 08:28:11 51°13.453 2°51.816 -999 0.036136 0.205764 -1.070216
2009-04-24 08:29:11 51°13.516 2°51.983 -999 0.036445 0.207576 -1.070216
2009-04-24 08:30:11 51°13.58 2°52.151 -999 0.035725 0.20342 -1.070216
2009-04-24 08:31:11 51°13.643 2°52.318 -999 0.049103 0.283404 -0.861272
2009-04-24 08:32:11 51°13.72 2°52.469 -999 0.051676 0.2986 -0.896096
2009-04-24 08:33:11 51°13.798 2°52.617 -999 0.049823 0.287962 -0.896096
2009-04-24 08:34:11 51°13.875 2°52.767 -999 0.04828 0.278732 -0.896096
2009-04-24 08:35:11 51°13.952 2°52.92 -999 0.046119 0.265834 -0.896096
2009-04-24 08:36:11 51°14.029 2°53.073 -999 0.044987 0.259131 -0.896096
2009-04-24 08:37:11 51°14.1 2°53.218 -999 0.04406 0.253618 -0.896096
2009-04-24 08:38:11 51°14.156 2°53.332 -999 0.043237 0.248743 -0.896096
2009-04-24 08:39:11 51°14.207 2°53.434 -999 0.043443 0.249941 -0.896096
2009-04-24 08:40:11 51°14.254 2°53.538 -999 0.04262 0.245089 -0.896096
2009-04-24 08:41:11 51°14.295 2°53.641 -999 0.042414 0.243873 -0.896096
2009-04-24 08:42:11 51°14.342 2°53.765 -999 0.041488 0.238422 -0.896096
2009-04-24 08:43:11 51°14.39 2°53.893 -999 0.039738 0.228135 -0.896096
2009-04-24 08:44:11 51°14.422 2°54.03 -999 0.039738 0.228148 -0.896096
2009-04-24 08:45:11 51°14.446 2°54.178 -999 0.039121 0.224516 -0.896096
2009-04-24 08:46:11 51°14.456 2°54.36 -999 0.037886 0.217291 -0.896096
2009-04-24 08:47:11 51°14.453 2°54.554 -999 0.037371 0.214279 -0.896096
2009-04-24 08:48:11 51°14.432 2°54.753 -999 0.037577 0.215482 -0.896096
2009-04-24 08:49:11 51°14.384 2°54.957 -999 0.039224 0.225128 -0.896096
2009-04-24 08:50:11 51°14.31 2°55.148 -999 0.037268 0.213685 -0.896096
2009-04-24 08:51:12 51°14.235 2°55.279 -999 0.036548 0.209481 -0.93092
2009-04-24 08:52:11 51°14.165 2°55.365 -999 0.037063 0.212495 -0.896096
2009-04-24 08:53:11 51°14.099 2°55.465 -999 0.037166 0.2131 -0.896096
2009-04-24 08:54:11 51°14.047 2°55.562 -999 0.036239 0.207691 -0.896096
2009-04-24 08:55:11 51°14.008 2°55.633 -999 0.039327 0.225735 -0.896096
2009-04-24 08:56:11 51°13.974 2°55.644 -999 0.038092 0.218524 -0.93092
2009-04-24 08:57:11 51°13.961 2°55.619 -999 0.035107 0.201082 -0.93092
2009-04-24 08:58:14 51°13.961 2°55.632 -999 0.037783 0.216758 -0.93092
2009-04-24 08:59:14 51°13.967 2°55.578 -999 0.035313 0.202282 -0.93092
2009-04-24 09:00:12 51°13.98 2°55.509 -999 0.035107 0.201097 -0.93092
2009-04-24 09:01:11 51°13.987 2°55.486 -999 0.03521 0.201701 -0.93092
2009-04-24 09:02:11 51°13.996 2°55.466 -999 0.035931 0.205912 -0.93092
2009-04-24 09:03:11 51°13.999 2°55.462 -999 0.035004 0.200512 -0.93092
2009-04-24 09:04:11 51°14.001 2°55.458 -999 0.035107 0.201116 -0.93092
2009-04-24 09:05:11 51°14 2°55.455 -999 0.035416 0.202927 -0.93092
2009-04-24 09:06:11 51°13.999 2°55.454 -999 0.035622 0.204123 -0.93092
2009-04-24 09:07:11 51°13.999 2°55.453 -999 0.034902 0.19992 -0.93092
2009-04-24 09:08:11 51°13.999 2°55.452 -999 0.035107 0.201119 -0.93092
2009-04-24 09:09:11 51°13.999 2°55.452 -999 0.034799 0.199317 -0.93092
2009-04-24 09:10:11 51°14 2°55.452 -999 0.034696 0.198718 -0.896096
2009-04-24 09:11:11 51°14 2°55.451 -999 0.035107 0.201112 -0.93092
2009-04-24 09:12:11 51°14 2°55.452 -999 0.035004 0.200509 -0.93092
2009-04-24 09:13:11 51°14.001 2°55.452 -999 0.035107 0.201108 -0.93092
2009-04-24 09:14:11 51°14.001 2°55.452 -999 0.03521 0.201708 -0.93092
2009-04-24 09:15:11 51°14.001 2°55.452 -999 0.035004 0.200505 -0.93092
2009-04-24 09:16:11 51°14 2°55.452 -999 0.035004 0.200501 -0.93092
2009-04-24 09:17:11 51°14 2°55.452 -999 0.035416 0.2029 -0.896096
2009-04-24 09:18:11 51°14 2°55.452 -999 0.035519 0.203496 -0.896096
2009-04-24 09:19:15 51°14 2°55.453 -999 0.03521 0.201693 -0.896096
2009-04-24 09:20:15 51°14 2°55.453 -999 0.035519 0.203493 -0.896096
2009-04-24 09:21:15 51°14 2°55.452 -999 0.035725 0.204689 -0.93092
2009-04-24 09:22:15 51°14 2°55.452 -999 0.03521 0.201682 -0.896096
2009-04-24 09:23:15 51°14 2°55.452 -999 0.03521 0.201686 -0.93092
2009-04-24 09:24:15 51°14 2°55.452 -999 0.035004 0.200479 -0.93092
2009-04-24 09:25:15 51°14 2°55.453 -999 0.03521 0.201674 -0.93092
2009-04-24 09:26:15 51°14 2°55.453 -999 0.035519 0.20347 -0.93092
2009-04-24 09:27:15 51°14 2°55.453 -999 0.035519 0.203466 -0.93092
2009-04-24 09:28:15 51°14 2°55.452 -999 0.035519 0.203462 -0.93092
2009-04-24 09:29:15 51°14 2°55.452 -999 0.035313 0.202255 -0.93092
2009-04-24 09:30:15 51°14 2°55.453 -999 0.035313 0.202248 -0.93092
2009-04-24 09:31:15 51°14 2°55.453 -999 0.036136 0.207044 -0.93092
2009-04-24 09:32:15 51°14.001 2°55.453 -999 0.036034 0.206444 -0.93092
2009-04-24 09:33:15 51°14.001 2°55.454 -999 0.035622 0.204036 -0.93092
2009-04-24 09:34:15 51°14.001 2°55.453 -999 0.035622 0.204024 -0.93092
2009-04-24 09:35:15 51°14.001 2°55.453 -999 0.035931 0.205817 -0.93092
2009-04-24 09:36:15 51°14.001 2°55.452 -999 0.036034 0.206409 -0.93092
2009-04-24 09:37:15 51°14.001 2°55.453 -999 0.036034 0.206402 -0.93092
2009-04-24 09:38:15 51°14 2°55.453 -999 0.035519 0.203394 -0.93092
2009-04-24 09:39:15 51°14 2°55.453 -999 0.036034 0.20639 -0.93092
2009-04-24 09:40:15 51°14 2°55.453 -999 0.035622 0.203979 -0.93092
2009-04-24 09:41:15 51°14 2°55.453 -999 0.035931 0.205771 -0.93092
2009-04-24 09:42:15 51°14 2°55.453 -999 0.036548 0.209365 -0.93092
2009-04-24 09:43:15 51°14 2°55.453 -999 0.036342 0.208156 -0.93092
2009-04-24 09:44:15 51°14 2°55.452 -999 0.035931 0.205744 -0.896096
2009-04-24 09:45:15 51°14 2°55.452 -999 0.035725 0.204537 -0.93092
2009-04-24 09:46:15 51°14 2°55.452 -999 0.036136 0.206929 -0.93092
2009-04-24 09:47:15 51°14 2°55.453 -999 0.036651 0.209918 -0.93092
2009-04-24 09:48:15 51°13.999 2°55.452 -999 0.036136 0.206913 -0.93092
2009-04-24 09:49:15 51°14 2°55.454 -999 0.036034 0.206302 -0.93092
2009-04-24 09:50:15 51°14 2°55.453 -999 0.036136 0.20689 -0.93092
2009-04-24 09:51:15 51°14 2°55.453 -999 0.036136 0.206879 -0.93092
2009-04-24 09:52:15 51°14 2°55.453 -999 0.035622 0.203869 -0.93092
2009-04-24 09:53:15 51°13.999 2°55.453 -999 0.036342 0.208063 -0.93092
2009-04-24 09:54:15 51°14 2°55.453 -999 0.036239 0.207452 -0.93092
2009-04-24 09:55:15 51°14 2°55.453 -999 0.036136 0.206844 -0.93092
2009-04-24 09:56:15 51°14 2°55.453 -999 0.036651 0.209832 -0.896096
2009-04-24 09:57:15 51°14 2°55.453 -999 0.036857 0.211021 -0.93092
2009-04-24 09:58:15 51°14 2°55.453 -999 0.036651 0.209813 -0.93092
2009-04-24 09:59:15 51°14 2°55.453 -999 0.036754 0.210405 -0.93092
2009-04-24 10:00:15 51°13.999 2°55.453 -999 0.036651 0.209789 -0.896096
2009-04-24 10:01:15 51°13.999 2°55.453 -999 0.03696 0.211578 -0.896096
2009-04-24 10:02:15 51°13.999 2°55.453 -999 0.036548 0.209166 -0.93092
2009-04-24 10:03:15 51°13.999 2°55.454 -999 0.036136 0.206756 -0.93092
2009-04-24 10:04:15 51°13.999 2°55.454 -999 0.036342 0.207943 -0.93092
2009-04-24 10:05:15 51°13.999 2°55.453 -999 0.036239 0.207332 -0.93092
2009-04-24 10:06:15 51°13.999 2°55.455 -999 0.036651 0.209719 -0.93092
2009-04-24 10:07:15 51°14 2°55.453 -999 0.036754 0.210307 -0.93092
2009-04-24 10:08:15 51°14 2°55.453 -999 0.036445 0.208497 -0.896096
2009-04-24 10:09:15 51°14 2°55.454 -999 0.036754 0.210284 -0.93092
2009-04-24 10:10:15 51°13.999 2°55.453 -999 0.037577 0.215077 -0.93092
2009-04-24 10:11:15 51°14 2°55.455 -999 0.037783 0.216262 -0.93092
2009-04-24 10:12:15 51°14 2°55.455 -999 0.037474 0.214449 -0.896096
2009-04-24 10:13:15 51°14 2°55.455 -999 0.037886 0.216838 -0.93092
2009-04-24 10:14:15 51°14 2°55.455 -999 0.03768 0.215625 -0.93092
2009-04-24 10:15:15 51°14 2°55.454 -999 0.037371 0.213809 -0.93092
2009-04-24 10:16:15 51°14 2°55.454 -999 0.037063 0.211997 -0.93092
2009-04-24 10:17:15 51°14 2°55.454 -999 0.037166 0.212581 -0.93092
2009-04-24 10:18:15 51°14 2°55.454 -999 0.037474 0.214369 -0.93092
2009-04-24 10:19:15 51°14 2°55.454 -999 0.038092 0.217958 -0.93092
2009-04-24 10:20:15 51°14 2°55.453 -999 0.03768 0.215541 -0.93092
2009-04-24 10:21:15 51°14 2°55.452 -999 0.037577 0.214925 -0.93092
2009-04-24 10:22:15 51°14 2°55.452 -999 0.037886 0.216713 -0.93092
2009-04-24 10:23:15 51°14 2°55.452 -999 0.03768 0.215497 -0.93092
2009-04-24 10:24:15 51°14 2°55.452 -999 0.038606 0.220892 -0.93092
2009-04-24 10:25:15 51°14 2°55.452 -999 0.039224 0.224481 -0.93092
2009-04-24 10:26:15 51°14 2°55.453 -999 0.038915 0.222661 -0.93092
2009-04-24 10:27:15 51°14 2°55.452 -999 0.038812 0.222048 -0.93092
2009-04-24 10:28:15 51°14 2°55.452 -999 0.038503 0.220226 -0.93092
2009-04-24 10:29:15 51°13.999 2°55.453 -999 0.039532 0.226225 -0.93092
2009-04-24 10:30:15 51°14 2°55.452 -999 0.039018 0.2232 -0.93092
2009-04-24 10:31:15 51°14 2°55.452 -999 0.039018 0.223191 -0.93092
2009-04-24 10:32:15 51°14 2°55.453 -999 0.039841 0.227978 -0.93092
2009-04-24 10:33:15 51°14 2°55.453 -999 0.039944 0.228563 -0.93092
2009-04-24 10:34:15 51°14 2°55.453 -999 0.039018 0.223137 -0.93092
2009-04-24 10:35:15 51°14 2°55.452 -999 0.039841 0.227923 -0.93092
2009-04-24 10:36:15 51°14 2°55.452 -999 0.039532 0.226095 -0.93092
2009-04-24 10:37:15 51°14 2°55.452 -999 0.040664 0.232687 -0.93092
2009-04-24 10:38:15 51°14 2°55.452 -999 0.039738 0.227254 -0.93092
2009-04-24 10:39:15 51°14 2°55.453 -999 0.040047 0.229032 -0.93092
2009-04-24 10:40:15 51°14 2°55.452 -999 0.040973 0.234422 -0.93092
2009-04-24 10:41:15 51°14 2°55.452 -999 0.040973 0.234396 -0.93092
2009-04-24 10:42:15 51°14 2°55.452 -999 0.040047 0.228963 -0.93092
2009-04-24 10:43:15 51°14.001 2°55.452 -999 0.041179 0.235547 -0.93092
2009-04-24 10:44:15 51°14.001 2°55.453 -999 0.040253 0.230105 -0.93092
2009-04-24 10:45:15 51°14.001 2°55.453 -999 0.040356 0.23068 -0.93092
2009-04-24 10:46:15 51°14 2°55.453 -999 0.041282 0.23606 -0.93092
2009-04-24 10:47:15 51°14 2°55.453 -999 0.041488 0.237237 -0.93092
2009-04-24 10:48:15 51°14 2°55.452 -999 0.041282 0.236008 -0.93092
2009-04-24 10:49:15 51°14 2°55.453 -999 0.040253 0.229964 -0.93092
2009-04-24 10:50:15 51°14 2°55.453 -999 0.040561 0.231735 -0.93092
2009-04-24 10:51:15 51°14 2°55.454 -999 0.041899 0.239523 -0.93092
2009-04-24 10:52:15 51°14 2°55.452 -999 0.040973 0.23409 -0.93092
2009-04-24 10:53:15 51°14 2°55.453 -999 0.042517 0.243088 -0.93092
2009-04-24 10:54:15 51°14 2°55.453 -999 0.042414 0.242446 -0.93092
2009-04-24 10:55:15 51°14 2°55.453 -999 0.041282 0.235783 -0.93092
2009-04-24 10:56:15 51°14 2°55.452 -999 0.041076 0.23456 -0.93092
2009-04-24 10:57:15 51°14 2°55.453 -999 0.041385 0.236331 -0.93092
2009-04-24 10:58:15 51°14 2°55.452 -999 0.041282 0.235704 -0.93092
2009-04-24 10:59:15 51°14 2°55.453 -999 0.040664 0.232059 -0.93092
2009-04-24 11:00:15 51°14 2°55.453 -999 0.041385 0.23623 -0.93092
2009-04-24 11:01:15 51°13.999 2°55.452 -999 0.043546 0.248827 -0.93092
2009-04-24 11:02:15 51°13.999 2°55.452 -999 0.043031 0.245777 -0.93092
2009-04-24 11:03:15 51°13.999 2°55.453 -999 0.041385 0.236124 -0.93092
2009-04-24 11:04:15 51°13.999 2°55.455 -999 0.042723 0.243896 -0.93092
2009-04-24 11:05:15 51°14.005 2°55.454 -999 0.049412 0.283177 -0.93092
2009-04-24 11:06:15 51°14.114 2°55.419 -999 0.039944 0.227591 -0.93092
2009-04-24 11:07:15 51°14.24 2°55.29 -999 0.035828 0.203589 -0.93092
2009-04-24 11:08:15 51°14.345 2°55.103 -999 0.034181 0.194054 -0.93092
2009-04-24 11:09:15 51°14.448 2°54.922 -999 0.034799 0.197562 -0.93092
2009-04-24 11:10:15 51°14.515 2°54.729 -999 0.033564 0.190423 -0.93092
2009-04-24 11:11:15 51°14.558 2°54.527 -999 0.033872 0.192197 -0.93092
2009-04-24 11:12:15 51°14.593 2°54.327 -999 0.033152 0.187988 -0.93092
2009-04-24 11:13:15 51°14.69 2°54.272 -999 0.037474 0.213079 -0.93092
2009-04-24 11:14:15 51°14.779 2°54.391 -999 0.034078 0.193327 -0.896096
2009-04-24 11:15:15 51°14.756 2°54.593 -999 0.049103 0.28109 -0.93092
2009-04-24 11:16:15 51°14.658 2°54.768 -999 0.038297 0.21775 -0.93092
2009-04-24 11:17:15 51°14.543 2°54.928 -999 0.037063 0.210521 -0.93092
2009-04-24 11:18:15 51°14.418 2°55.064 -999 0.036239 0.205765 -0.93092
2009-04-24 11:19:15 51°14.295 2°55.196 -999 0.036857 0.209253 -0.93092
2009-04-24 11:20:15 51°14.185 2°55.352 -999 0.03377 0.191405 -0.93092
2009-04-24 11:21:15 51°14.07 2°55.454 -999 0.034696 0.196748 -0.93092
2009-04-24 11:22:15 51°13.959 2°55.532 -999 0.034387 0.194956 -0.93092
2009-04-24 11:23:15 51°13.856 2°55.609 -999 0.034799 0.197312 -0.93092
2009-04-24 11:24:15 51°13.771 2°55.695 -999 0.035313 0.200263 -0.93092
2009-04-24 11:25:15 51°13.722 2°55.782 -999 0.03521 0.199644 -0.93092
2009-04-24 11:26:15 51°13.694 2°55.857 -999 0.035416 0.200816 -0.93092
2009-04-24 11:27:15 51°13.677 2°55.919 -999 0.035519 0.201387 -0.93092
2009-04-24 11:28:15 51°13.665 2°55.954 -999 0.036342 0.206125 -0.93092
2009-04-24 11:29:15 51°13.662 2°55.959 -999 0.036034 0.204306 -0.93092